LIPC

Details ICAO LIPC
Name CERVIA
Region Italy
Timezone Europe/Rome (UTC+2.0)
Plans Departing 14
Arriving 11
Stats Elevation 18 ft / 5 m (AMSL)
Location 44.224294° 12.307234°
Runways 1
Magnetic Variation 3.165° E
Sunrise 2018-05-28 03:34:09 UTC / 2018-05-28 05:34:09 Local
Sunset 2018-05-28 18:44:49 UTC / 2018-05-28 20:44:49 Local
Advertisement - Login to hide

Runways

ID Width Length Bearing (true) Bearing (mag) Surface Threshold Offset Overrun Length
12 148 ft / 45 m 9,984 ft / 3,043 m 116.32° 113.15° Asphalt 389 ft / 119 m 0 ft / 0 m
30 148 ft / 45 m 9,984 ft / 3,043 m 296.34° 293.17° Asphalt 377 ft / 115 m 0 ft / 0 m

Approach Navaids

Runway Type Ident Frequency Range Bearing (true) Bearing (mag) Slope Elevation
12 Localiser CER 110.35 MHz 18 nm / 33 km 116.32° 113.15° - 12 ft / 4 m (AMSL)
12 Glidescope CER 110.35 MHz 10 nm / 19 km 116.33° 113.17° 3.01° 19 ft / 6 m (AMSL)
12 DME CER 110.35 MHz 18 nm / 33 km - - - 18 ft / 5 m (AMSL)

Map

Weather


0- 5 10 15 20 25 30 35+ Temperature / ° C

Clouds and Precipitation
Forecast for 2018-05-28 00:00 UTC. Updated an hour ago

Ground ~20,000 ft ~40,000 ft Winds

METAR

LIPC 272355Z 24002KT CAVOK 20/18 Q1017 RMK SKC VIS MIN 9999 WIND THR11 24002KT WIND THR29 /////KT BLU

TAF

Not found

Frequencies

Tower 122.10 MHz TWR
Approach 122.10 MHz ROMAGNA APP
Approach 118.15 MHz ROMAGNA APP
Approach 118.57 MHz ROMAGNA APP
Warning: Do not use this data for real-world aviation or navigation. No guarantee of current accuracy is given.